Time;durP1;ratioP1;P1;durP2;ratioP2;P2;SDS_P1;SDS_P2;PMS_P1;PMS_P2;Temp;Humidity;BMP_temperature;BMP_pressure;BME280_temperature;BME280_humidity;BME280_pressure;Samples;Min_cycle;Max_cycle;Signal;HPM_P1;HPM_P2
2022/04/04 00:00:52;;;;;;;4.63;2.80;;;4.60;99.90;;;;;;5012258;28;20052;-55
2022/04/04 00:03:17;;;;;;;6.07;2.70;;;4.60;99.90;;;;;;5033231;28;20048;-54
2022/04/04 00:05:43;;;;;;;5.70;3.40;;;4.60;99.90;;;;;;5033828;28;21263;-58
2022/04/04 00:08:09;;;;;;;10.48;4.43;;;4.60;99.90;;;;;;5016476;28;20045;-55
2022/04/04 00:10:35;;;;;;;6.13;3.20;;;4.70;99.90;;;;;;5036203;28;20127;-56
2022/04/04 00:13:00;;;;;;;5.57;2.88;;;4.60;99.90;;;;;;5034864;28;20512;-54
2022/04/04 00:15:27;;;;;;;7.05;2.90;;;4.70;99.90;;;;;;5028885;28;20044;-55
2022/04/04 00:17:55;;;;;;;5.60;3.28;;;4.70;99.90;;;;;;5008571;28;20093;-56
2022/04/04 00:20:22;;;;;;;8.20;3.42;;;4.70;99.90;;;;;;5008398;28;20413;-56
2022/04/04 00:22:47;;;;;;;10.32;4.85;;;4.70;99.90;;;;;;5036112;28;20047;-55
2022/04/04 00:25:13;;;;;;;5.63;3.20;;;4.70;99.90;;;;;;5033904;28;20052;-54
2022/04/04 00:27:39;;;;;;;6.47;3.63;;;4.80;99.90;;;;;;5051455;28;20035;-53
2022/04/04 00:30:05;;;;;;;6.28;3.95;;;4.80;99.90;;;;;;5026890;28;20143;-57
2022/04/04 00:32:31;;;;;;;7.72;4.50;;;4.80;99.90;;;;;;5019128;28;20040;-55
2022/04/04 00:34:57;;;;;;;8.20;4.57;;;4.80;99.90;;;;;;5016797;28;20417;-59
2022/04/04 00:37:22;;;;;;;9.07;5.25;;;4.90;99.90;;;;;;5031333;28;20037;-55
2022/04/04 00:39:48;;;;;;;9.25;5.35;;;4.90;99.90;;;;;;5053925;28;20047;-54
2022/04/04 00:42:15;;;;;;;12.15;6.10;;;4.90;99.90;;;;;;5041740;28;20048;-54
2022/04/04 00:44:41;;;;;;;11.55;6.20;;;5.00;99.90;;;;;;5030194;28;20501;-57
2022/04/04 00:47:08;;;;;;;10.43;6.55;;;5.00;99.90;;;;;;5033767;28;20045;-59
2022/04/04 00:49:34;;;;;;;9.90;7.00;;;5.00;99.90;;;;;;5013436;28;20096;-59
2022/04/04 00:52:00;;;;;;;11.27;7.32;;;5.10;99.90;;;;;;5057883;28;20068;-58
2022/04/04 00:54:28;;;;;;;13.43;8.65;;;5.10;99.90;;;;;;5036448;28;20072;-56
2022/04/04 00:56:55;;;;;;;14.80;8.35;;;5.10;99.90;;;;;;5035711;28;20316;-57
2022/04/04 00:59:22;;;;;;;13.73;8.57;;;5.20;99.90;;;;;;5033469;28;20133;-58
2022/04/04 01:01:49;;;;;;;12.43;8.73;;;5.20;99.90;;;;;;5018616;28;20041;-58
2022/04/04 01:04:16;;;;;;;17.50;8.73;;;5.20;99.90;;;;;;5034091;28;20128;-56
2022/04/04 01:06:45;;;;;;;14.18;9.00;;;5.20;99.90;;;;;;5034245;28;20036;-57
2022/04/04 01:09:14;;;;;;;12.65;8.80;;;5.30;99.90;;;;;;5026777;28;20496;-59
2022/04/04 01:12:12;;;;;;;16.08;9.05;;;5.30;99.90;;;;;;5041855;28;20043;-57
2022/04/04 01:14:46;;;;;;;12.40;8.43;;;5.40;99.90;;;;;;5026497;28;20059;-59
2022/04/04 01:17:13;;;;;;;12.90;8.63;;;5.40;99.90;;;;;;5036942;28;20044;-59
2022/04/04 01:19:39;;;;;;;14.95;9.27;;;5.50;99.90;;;;;;5033233;28;20400;-57
2022/04/04 01:22:07;;;;;;;11.27;9.23;;;5.40;99.90;;;;;;5029202;28;20051;-59
2022/04/04 01:24:33;;;;;;;13.63;8.70;;;5.50;99.90;;;;;;5035093;28;20040;-55
2022/04/04 01:26:59;;;;;;;16.38;10.40;;;5.50;99.90;;;;;;5015620;28;20070;-55
2022/04/04 01:29:24;;;;;;;12.65;9.38;;;5.50;99.90;;;;;;5034993;28;20074;-56
2022/04/04 01:31:51;;;;;;;16.35;10.55;;;5.50;99.90;;;;;;5029515;28;20101;-55
2022/04/04 01:34:22;;;;;;;17.52;10.20;;;5.50;99.90;;;;;;5035508;28;20485;-56
2022/04/04 01:36:49;;;;;;;15.07;10.30;;;5.50;99.90;;;;;;5020302;28;20488;-56
2022/04/04 01:39:15;;;;;;;17.63;11.18;;;5.50;99.90;;;;;;5022750;28;20457;-58
2022/04/04 01:41:41;;;;;;;15.65;10.82;;;5.50;99.90;;;;;;5029566;28;20067;-58
2022/04/04 01:44:08;;;;;;;19.17;11.63;;;5.50;99.90;;;;;;5037047;28;20139;-55
2022/04/04 01:46:34;;;;;;;20.10;11.15;;;5.50;99.90;;;;;;5029391;28;20434;-54
2022/04/04 01:49:01;;;;;;;17.80;10.77;;;5.50;99.90;;;;;;5050998;28;20501;-59
2022/04/04 01:51:28;;;;;;;17.67;11.73;;;5.50;99.90;;;;;;5038820;28;20040;-57
2022/04/04 01:53:54;;;;;;;19.35;12.48;;;5.50;99.90;;;;;;5050778;28;20044;-55
2022/04/04 01:56:21;;;;;;;18.75;11.13;;;5.60;99.90;;;;;;5035205;28;20173;-54
2022/04/04 01:58:47;;;;;;;19.15;10.80;;;5.70;99.90;;;;;;5035606;28;20045;-54
2022/04/04 02:01:16;;;;;;;20.52;12.20;;;5.60;99.90;;;;;;5020882;28;20333;-58
2022/04/04 02:03:43;;;;;;;19.95;11.27;;;5.60;99.90;;;;;;5031763;28;20040;-59
2022/04/04 02:06:09;;;;;;;19.25;11.90;;;5.70;99.90;;;;;;5038972;28;20573;-55
2022/04/04 02:08:35;;;;;;;17.92;11.98;;;5.70;99.90;;;;;;5036979;28;20039;-56
2022/04/04 02:11:02;;;;;;;17.83;12.32;;;5.70;99.90;;;;;;5035864;28;20048;-53
2022/04/04 02:13:28;;;;;;;15.65;11.93;;;5.70;99.90;;;;;;5036412;28;20535;-57
2022/04/04 02:15:57;;;;;;;20.10;12.10;;;5.70;99.90;;;;;;5031981;28;20044;-58
2022/04/04 02:18:23;;;;;;;20.27;12.73;;;5.80;99.90;;;;;;5026928;28;20471;-57
2022/04/04 02:20:49;;;;;;;23.38;13.27;;;5.80;99.90;;;;;;5039766;28;20552;-55
2022/04/04 02:23:20;;;;;;;17.63;12.32;;;5.90;99.90;;;;;;5019750;28;20056;-55
2022/04/04 02:25:46;;;;;;;19.48;12.18;;;5.80;99.90;;;;;;5039188;28;20051;-54
2022/04/04 02:28:13;;;;;;;20.35;13.43;;;5.80;99.90;;;;;;5036360;28;20041;-55
2022/04/04 02:30:40;;;;;;;22.15;12.63;;;5.80;99.90;;;;;;5033953;28;20039;-55
2022/04/04 02:33:06;;;;;;;19.30;13.30;;;5.80;99.90;;;;;;5016208;28;20477;-58
2022/04/04 02:35:31;;;;;;;17.85;12.88;;;5.90;99.90;;;;;;5020589;28;20051;-57
2022/04/04 02:37:57;;;;;;;16.92;12.80;;;5.90;99.90;;;;;;5014536;28;20562;-54
2022/04/04 02:40:23;;;;;;;18.67;12.20;;;5.90;99.90;;;;;;5051759;28;20185;-58
2022/04/04 02:42:49;;;;;;;17.92;12.88;;;6.00;99.90;;;;;;5029641;28;20029;-56
2022/04/04 02:45:15;;;;;;;17.83;12.55;;;5.90;99.90;;;;;;5035012;28;20048;-55
2022/04/04 02:47:42;;;;;;;22.15;12.80;;;5.90;99.90;;;;;;5031808;28;20064;-58
2022/04/04 02:50:09;;;;;;;18.38;11.80;;;5.90;99.90;;;;;;5035926;28;20051;-54
2022/04/04 02:52:34;;;;;;;21.55;12.90;;;6.00;99.90;;;;;;5039557;28;20328;-58
2022/04/04 02:56:28;;;;;;;18.08;13.02;;;6.00;99.90;;;;;;5036835;28;20678;-57
2022/04/04 02:57:46;;;;;;;19.80;13.02;;;6.00;99.90;;;;;;5012147;28;22382;-57
2022/04/04 03:00:14;;;;;;;21.92;13.00;;;5.90;99.90;;;;;;5011927;28;20118;-57
2022/04/04 03:02:39;;;;;;;19.75;13.18;;;6.00;99.90;;;;;;5005593;28;20159;-57
2022/04/04 03:05:05;;;;;;;21.20;12.70;;;6.00;99.90;;;;;;4995604;28;20524;-58
2022/04/04 03:07:31;;;;;;;17.88;12.82;;;6.10;99.90;;;;;;4991578;28;22550;-56
2022/04/04 03:09:57;;;;;;;21.92;13.15;;;6.10;99.90;;;;;;5049698;28;20041;-58
2022/04/04 03:12:22;;;;;;;18.90;12.98;;;6.10;99.90;;;;;;5035179;28;20432;-57
2022/04/04 03:14:48;;;;;;;21.23;12.32;;;6.10;99.90;;;;;;5038372;28;20451;-56
2022/04/04 03:17:14;;;;;;;21.38;13.32;;;6.10;99.90;;;;;;5038853;28;20044;-58
2022/04/04 03:19:39;;;;;;;22.50;14.13;;;6.00;99.90;;;;;;5033419;28;20044;-58
2022/04/04 03:22:05;;;;;;;18.10;11.45;;;6.10;99.90;;;;;;5031955;28;20128;-57
2022/04/04 03:24:31;;;;;;;19.27;12.73;;;6.00;99.90;;;;;;5022800;28;20041;-57
2022/04/04 03:26:57;;;;;;;18.02;12.32;;;6.10;99.90;;;;;;5018985;28;20049;-58
2022/04/04 03:29:22;;;;;;;18.85;11.00;;;6.10;99.90;;;;;;5027645;28;20570;-58
2022/04/04 03:31:48;;;;;;;17.70;11.73;;;6.00;99.90;;;;;;5036289;28;20051;-58
2022/04/04 03:34:14;;;;;;;22.98;12.32;;;6.00;99.90;;;;;;5004866;28;20086;-59
2022/04/04 03:36:40;;;;;;;21.40;11.88;;;6.00;99.90;;;;;;4999469;28;20047;-57
2022/04/04 03:39:06;;;;;;;20.98;11.65;;;6.00;99.90;;;;;;5034182;28;20036;-58
2022/04/04 03:41:31;;;;;;;22.45;11.98;;;6.00;99.90;;;;;;5038718;28;20040;-57
2022/04/04 03:43:57;;;;;;;21.55;11.70;;;6.00;99.90;;;;;;5037150;28;20041;-58
2022/04/04 03:46:23;;;;;;;22.45;12.88;;;6.00;99.90;;;;;;5023504;28;20292;-57
2022/04/04 03:48:49;;;;;;;19.73;11.70;;;6.00;99.90;;;;;;5031243;28;20456;-57
2022/04/04 03:51:14;;;;;;;18.08;10.90;;;6.00;99.90;;;;;;5037129;28;20056;-58
2022/04/04 03:53:40;;;;;;;19.92;10.15;;;5.90;99.90;;;;;;5040521;28;20033;-59
2022/04/04 03:56:06;;;;;;;14.73;9.45;;;5.90;99.90;;;;;;5035301;28;20060;-59
2022/04/04 03:58:32;;;;;;;18.65;9.23;;;5.90;99.90;;;;;;5036838;28;20066;-59
2022/04/04 04:00:58;;;;;;;16.38;8.18;;;5.90;99.90;;;;;;5015086;28;20040;-57
2022/04/04 04:03:23;;;;;;;14.52;9.02;;;6.00;99.90;;;;;;5018442;28;20045;-57
2022/04/04 04:05:49;;;;;;;13.32;8.50;;;5.90;99.90;;;;;;5030841;28;20134;-57
2022/04/04 04:08:15;;;;;;;17.67;9.93;;;5.90;99.90;;;;;;5024907;28;20068;-57
2022/04/04 04:10:41;;;;;;;17.60;10.02;;;5.90;99.90;;;;;;4996169;28;20052;-58
2022/04/04 04:13:06;;;;;;;19.85;9.65;;;5.80;99.90;;;;;;5003974;28;20695;-57
2022/04/04 04:15:33;;;;;;;18.90;10.68;;;5.90;99.90;;;;;;5017512;28;20405;-59
2022/04/04 04:17:58;;;;;;;17.02;9.50;;;5.90;99.90;;;;;;5035517;28;20102;-54
2022/04/04 04:20:26;;;;;;;21.35;11.55;;;5.90;99.90;;;;;;5040704;28;20036;-58
2022/04/04 04:23:03;;;;;;;16.42;10.43;;;5.90;99.90;;;;;;5040587;28;20048;-58
2022/04/04 04:25:31;;;;;;;19.98;11.82;;;5.90;99.90;;;;;;5038079;28;20094;-58
2022/04/04 04:28:00;;;;;;;17.73;11.73;;;5.80;99.90;;;;;;5045384;28;20069;-57
2022/04/04 04:30:26;;;;;;;19.35;11.57;;;5.80;99.90;;;;;;5051286;28;20059;-56
2022/04/04 04:32:53;;;;;;;21.33;10.80;;;5.80;99.90;;;;;;5061459;28;20052;-59
2022/04/04 04:35:20;;;;;;;18.60;10.57;;;5.70;99.90;;;;;;5060993;28;20076;-58
2022/04/04 04:37:46;;;;;;;19.95;11.55;;;5.80;99.90;;;;;;5044536;28;20055;-57
2022/04/04 04:40:14;;;;;;;22.30;11.50;;;5.70;99.90;;;;;;5041772;28;20374;-57
2022/04/04 04:42:42;;;;;;;20.67;11.27;;;5.70;99.90;;;;;;5038745;28;20271;-58
2022/04/04 04:45:07;;;;;;;18.55;10.88;;;5.70;99.90;;;;;;5041232;28;20049;-54
2022/04/04 04:47:33;;;;;;;17.73;10.00;;;5.70;99.90;;;;;;5027997;28;20199;-56
2022/04/04 04:50:00;;;;;;;19.67;10.80;;;5.70;99.90;;;;;;5033999;28;20036;-57
2022/04/04 04:52:27;;;;;;;18.17;10.82;;;5.80;99.90;;;;;;5038812;28;20041;-57
2022/04/04 04:54:52;;;;;;;18.10;11.18;;;5.70;99.90;;;;;;5040645;28;20051;-54
2022/04/04 04:57:19;;;;;;;23.77;12.43;;;5.70;99.90;;;;;;5060073;28;20044;-56
2022/04/04 04:59:45;;;;;;;22.35;11.32;;;5.70;99.90;;;;;;5038381;28;20040;-59
2022/04/04 05:02:11;;;;;;;16.42;11.15;;;5.80;99.90;;;;;;5017401;28;20095;-58
2022/04/04 05:04:37;;;;;;;17.65;10.00;;;5.70;99.90;;;;;;5038568;28;20036;-58
2022/04/04 05:07:04;;;;;;;18.73;10.45;;;5.70;99.90;;;;;;5042153;28;20052;-57
2022/04/04 05:09:30;;;;;;;17.50;9.20;;;5.70;99.90;;;;;;5010065;28;20517;-56
2022/04/04 05:11:56;;;;;;;17.75;9.60;;;5.70;99.90;;;;;;5036838;28;20054;-58
2022/04/04 05:14:22;;;;;;;13.70;8.82;;;5.70;99.90;;;;;;5061123;28;20050;-56
2022/04/04 05:16:48;;;;;;;15.43;9.27;;;5.60;99.90;;;;;;5061021;28;20041;-57
2022/04/04 05:19:17;;;;;;;19.70;8.07;;;5.60;99.90;;;;;;5019921;28;20040;-57
2022/04/04 05:21:43;;;;;;;12.45;5.85;;;5.60;99.90;;;;;;5026981;28;20469;-56
2022/04/04 05:24:09;;;;;;;10.52;5.93;;;5.50;99.90;;;;;;5029200;28;20045;-56
2022/04/04 05:26:35;;;;;;;10.48;6.15;;;5.50;99.90;;;;;;5040025;28;20039;-56
2022/04/04 05:29:02;;;;;;;9.55;5.30;;;5.50;99.90;;;;;;5042883;28;20040;-57
2022/04/04 05:31:30;;;;;;;14.60;5.25;;;5.50;99.90;;;;;;5022701;28;20172;-58
2022/04/04 05:33:57;;;;;;;8.52;3.97;;;5.40;99.90;;;;;;5023492;28;20051;-56
2022/04/04 05:36:25;;;;;;;9.55;3.92;;;5.40;99.90;;;;;;5025388;28;20048;-57
2022/04/04 05:38:50;;;;;;;8.75;4.00;;;5.30;99.90;;;;;;5048468;28;20036;-56
2022/04/04 05:41:19;;;;;;;9.88;4.03;;;5.30;99.90;;;;;;5035840;28;20036;-58
2022/04/04 05:43:47;;;;;;;7.15;3.20;;;5.30;99.90;;;;;;5035247;28;20045;-57
2022/04/04 05:46:17;;;;;;;8.32;3.92;;;5.30;99.90;;;;;;5037329;28;20291;-57
2022/04/04 05:48:43;;;;;;;9.35;3.55;;;5.20;99.90;;;;;;5038248;28;20545;-57
2022/04/04 05:51:10;;;;;;;10.73;3.05;;;5.20;99.90;;;;;;5034361;28;20040;-59
2022/04/04 05:53:36;;;;;;;5.80;2.38;;;5.20;99.90;;;;;;5054170;28;20047;-54
2022/04/04 05:56:03;;;;;;;5.78;2.22;;;5.20;99.90;;;;;;5037250;28;20145;-56
2022/04/04 05:58:29;;;;;;;8.48;2.47;;;5.20;99.90;;;;;;5035857;28;20044;-58
2022/04/04 06:00:54;;;;;;;7.32;2.50;;;5.20;99.90;;;;;;5043411;28;20044;-56
2022/04/04 06:03:20;;;;;;;5.75;2.30;;;5.20;99.90;;;;;;5037085;28;20041;-57
2022/04/04 06:05:49;;;;;;;7.38;2.70;;;5.10;99.90;;;;;;5036015;28;20075;-56
2022/04/04 06:08:19;;;;;;;7.10;2.75;;;5.20;99.90;;;;;;5032838;28;20120;-56
2022/04/04 06:10:45;;;;;;;10.00;3.20;;;5.20;99.90;;;;;;5035625;28;20131;-55
2022/04/04 06:13:20;;;;;;;7.78;3.03;;;5.20;99.90;;;;;;5062401;28;20048;-54
2022/04/04 06:15:47;;;;;;;8.40;3.40;;;5.30;99.90;;;;;;5023644;28;20048;-59
2022/04/04 06:18:14;;;;;;;7.20;3.70;;;5.20;99.90;;;;;;5032322;28;20056;-57
2022/04/04 06:20:40;;;;;;;9.35;5.13;;;5.30;99.90;;;;;;5049138;28;20525;-57
2022/04/04 06:23:06;;;;;;;8.73;3.70;;;5.30;99.90;;;;;;5030136;28;20135;-59
2022/04/04 06:25:32;;;;;;;7.32;3.78;;;5.30;99.90;;;;;;5034108;28;20207;-57
2022/04/04 06:28:01;;;;;;;8.30;4.45;;;5.30;99.90;;;;;;5033250;28;20280;-57
2022/04/04 06:30:27;;;;;;;12.57;4.60;;;5.30;99.90;;;;;;5039536;28;20573;-58
2022/04/04 06:32:53;;;;;;;9.27;4.07;;;5.30;99.90;;;;;;5033890;28;20075;-58
2022/04/04 06:35:18;;;;;;;8.43;5.03;;;5.40;99.90;;;;;;5033992;28;20068;-58
2022/04/04 06:37:46;;;;;;;13.15;5.88;;;5.40;99.90;;;;;;5016511;28;20721;-57
2022/04/04 06:40:14;;;;;;;9.77;5.28;;;5.40;99.90;;;;;;5016816;28;20833;-57
2022/04/04 06:42:42;;;;;;;11.68;6.38;;;5.40;99.90;;;;;;5013272;28;20040;-58
2022/04/04 06:45:09;;;;;;;15.55;5.72;;;5.40;99.90;;;;;;5012564;28;20045;-57
2022/04/04 06:47:36;;;;;;;15.57;7.95;;;5.50;99.90;;;;;;5024417;28;20718;-57
2022/04/04 06:50:02;;;;;;;13.23;6.25;;;5.50;99.90;;;;;;5035930;28;20526;-58
2022/04/04 06:52:28;;;;;;;14.50;6.72;;;5.50;99.90;;;;;;5040194;28;20160;-58
2022/04/04 06:54:56;;;;;;;15.23;7.20;;;5.50;99.90;;;;;;5032771;28;20072;-58
2022/04/04 06:57:22;;;;;;;11.82;7.18;;;5.60;99.90;;;;;;5049529;28;20045;-57
2022/04/04 06:59:48;;;;;;;16.10;8.13;;;5.60;99.90;;;;;;5018306;28;20076;-58
2022/04/04 07:02:14;;;;;;;14.55;8.18;;;5.60;99.90;;;;;;5036015;28;20032;-58
2022/04/04 07:04:41;;;;;;;19.70;9.40;;;5.60;99.90;;;;;;5027708;28;20535;-57
2022/04/04 07:07:10;;;;;;;15.90;9.40;;;5.70;99.90;;;;;;5053628;28;20048;-58
2022/04/04 07:09:36;;;;;;;22.35;10.25;;;5.70;99.90;;;;;;5040000;28;20423;-58
2022/04/04 07:12:03;;;;;;;21.38;9.98;;;5.70;99.90;;;;;;5037128;28;20129;-57
2022/04/04 07:14:29;;;;;;;21.05;10.00;;;5.80;99.90;;;;;;5035403;28;20048;-57
2022/04/04 07:16:55;;;;;;;18.85;9.95;;;5.90;99.90;;;;;;5036669;28;20531;-58
2022/04/04 07:19:23;;;;;;;20.58;9.90;;;5.90;99.90;;;;;;5038074;28;20036;-55
2022/04/04 07:21:52;;;;;;;22.42;9.95;;;5.90;99.90;;;;;;5033134;28;20330;-57
2022/04/04 07:24:19;;;;;;;18.35;9.35;;;6.00;99.90;;;;;;5038366;28;20036;-58
2022/04/04 07:26:48;;;;;;;15.75;8.65;;;6.00;99.90;;;;;;5031997;28;20160;-55
2022/04/04 07:29:17;;;;;;;18.77;9.18;;;6.00;99.90;;;;;;5055222;28;20041;-58
2022/04/04 07:31:43;;;;;;;18.85;9.40;;;6.00;99.90;;;;;;5035961;28;20055;-57
2022/04/04 07:34:12;;;;;;;16.08;9.23;;;6.00;99.90;;;;;;5029032;28;20237;-57
2022/04/04 07:36:40;;;;;;;15.15;9.27;;;6.10;99.90;;;;;;5028985;28;20049;-56
2022/04/04 07:39:06;;;;;;;23.73;8.52;;;6.10;99.90;;;;;;5054947;28;20452;-55
2022/04/04 07:41:32;;;;;;;12.80;8.18;;;6.10;99.90;;;;;;5037425;28;20024;-54
2022/04/04 07:43:58;;;;;;;14.45;7.68;;;6.10;99.90;;;;;;5033300;28;20392;-57
2022/04/04 07:46:24;;;;;;;12.05;7.15;;;6.10;99.90;;;;;;5035439;28;20484;-57
2022/04/04 07:48:54;;;;;;;16.88;7.90;;;6.20;99.90;;;;;;5016727;28;20036;-59
2022/04/04 07:51:20;;;;;;;14.90;7.30;;;6.20;99.90;;;;;;5019650;28;20068;-58
2022/04/04 07:53:45;;;;;;;14.45;8.15;;;6.20;99.90;;;;;;5013836;28;20044;-57
2022/04/04 07:56:11;;;;;;;15.95;8.20;;;6.20;99.90;;;;;;5036614;28;20053;-55
2022/04/04 07:58:37;;;;;;;16.48;8.15;;;6.20;99.90;;;;;;5051725;28;20419;-58
2022/04/04 08:01:03;;;;;;;16.60;8.02;;;6.20;99.90;;;;;;5031201;28;20127;-57
2022/04/04 08:03:29;;;;;;;14.07;8.35;;;6.20;99.90;;;;;;5027660;28;20040;-58
2022/04/04 08:05:55;;;;;;;13.52;8.05;;;6.20;99.90;;;;;;5015600;28;20655;-57
2022/04/04 08:08:21;;;;;;;13.20;7.43;;;6.30;99.90;;;;;;5034086;28;20401;-57
2022/04/04 08:10:46;;;;;;;13.50;7.57;;;6.20;99.90;;;;;;5035368;28;20043;-57
2022/04/04 08:13:12;;;;;;;10.75;7.45;;;6.30;99.90;;;;;;5019416;28;20044;-54
2022/04/04 08:15:38;;;;;;;15.25;8.18;;;6.30;99.90;;;;;;5028770;28;20051;-57
2022/04/04 08:18:04;;;;;;;12.75;8.07;;;6.30;99.90;;;;;;5022631;28;20044;-57
2022/04/04 08:20:31;;;;;;;11.25;6.47;;;6.30;99.90;;;;;;5027917;28;20048;-56
2022/04/04 08:22:57;;;;;;;12.30;6.45;;;6.30;99.90;;;;;;5035625;28;20052;-58
2022/04/04 08:25:23;;;;;;;12.38;6.63;;;6.30;99.90;;;;;;5034319;28;20040;-55
2022/04/04 08:27:49;;;;;;;14.90;6.07;;;6.40;99.90;;;;;;5044364;28;20130;-55
2022/04/04 08:30:17;;;;;;;12.02;6.07;;;6.40;99.90;;;;;;5037699;28;20090;-57
2022/04/04 08:32:44;;;;;;;10.27;5.68;;;6.40;99.90;;;;;;5012961;28;20041;-55
2022/04/04 08:35:13;;;;;;;12.55;5.75;;;6.40;99.90;;;;;;5040867;28;20037;-58
2022/04/04 08:37:41;;;;;;;8.40;5.15;;;6.50;99.90;;;;;;5040837;28;20141;-58
2022/04/04 08:40:09;;;;;;;13.23;6.25;;;6.50;99.90;;;;;;5021389;28;20051;-56
2022/04/04 08:42:36;;;;;;;9.68;5.47;;;6.50;99.90;;;;;;5037288;28;20523;-57
2022/04/04 08:45:03;;;;;;;10.60;4.97;;;6.50;99.90;;;;;;5033165;28;20046;-58
2022/04/04 08:47:31;;;;;;;8.25;5.53;;;6.50;99.90;;;;;;5047036;28;20044;-57
2022/04/04 08:49:57;;;;;;;9.63;5.20;;;6.50;99.90;;;;;;5027889;28;20083;-58
2022/04/04 08:52:24;;;;;;;12.02;5.18;;;6.60;99.90;;;;;;5033653;28;20140;-58
2022/04/04 08:54:50;;;;;;;11.73;4.63;;;6.60;99.90;;;;;;5012951;28;20041;-56
2022/04/04 08:57:17;;;;;;;9.43;4.90;;;6.60;99.90;;;;;;5040764;28;20131;-53
2022/04/04 08:59:43;;;;;;;9.15;5.00;;;6.60;99.90;;;;;;5022939;28;20040;-55
2022/04/04 09:02:10;;;;;;;12.15;5.68;;;6.60;99.90;;;;;;5028617;28;20616;-56
2022/04/04 09:04:36;;;;;;;9.63;5.15;;;6.70;99.90;;;;;;5024986;28;20247;-56
2022/04/04 09:07:07;;;;;;;10.05;4.80;;;6.70;99.90;;;;;;5011479;28;20179;-56
2022/04/04 09:09:42;;;;;;;12.13;4.90;;;6.70;99.90;;;;;;5034756;28;20040;-56
2022/04/04 09:12:11;;;;;;;10.10;4.30;;;6.80;99.90;;;;;;5030554;28;20051;-58
2022/04/04 09:14:58;;;;;;;7.45;3.97;;;6.80;99.90;;;;;;5036515;28;20048;-58
2022/04/04 09:17:27;;;;;;;10.07;3.90;;;6.80;99.90;;;;;;5046498;28;20044;-58
2022/04/04 09:19:53;;;;;;;8.82;4.15;;;6.80;99.90;;;;;;5042433;28;20040;-57
2022/04/04 09:22:21;;;;;;;9.30;3.88;;;6.80;99.90;;;;;;5035992;28;20044;-57
2022/04/04 09:24:57;;;;;;;10.13;4.15;;;6.90;99.90;;;;;;5041439;28;20115;-58
2022/04/04 09:27:29;;;;;;;7.68;3.85;;;6.90;99.90;;;;;;5023311;28;20051;-58
2022/04/04 09:29:57;;;;;;;9.80;4.85;;;6.90;99.90;;;;;;5046340;28;20060;-57
2022/04/04 09:32:35;;;;;;;7.68;3.53;;;6.90;99.90;;;;;;5030639;28;20082;-57
2022/04/04 09:35:09;;;;;;;7.93;3.80;;;7.00;99.90;;;;;;5033947;28;20040;-54
2022/04/04 09:37:36;;;;;;;7.85;3.45;;;7.00;99.90;;;;;;5013014;28;20295;-56
2022/04/04 09:40:05;;;;;;;9.75;3.85;;;7.00;99.90;;;;;;5033654;28;20040;-58
2022/04/04 09:42:32;;;;;;;13.15;4.65;;;7.00;99.90;;;;;;5031315;28;20051;-56
2022/04/04 09:45:05;;;;;;;9.02;4.10;;;7.10;99.90;;;;;;5036293;28;20116;-57
2022/04/04 09:47:55;;;;;;;11.73;4.53;;;7.10;99.90;;;;;;5060652;28;20033;-57
2022/04/04 09:50:31;;;;;;;7.10;3.95;;;7.10;99.90;;;;;;5017307;28;21840;-58
2022/04/04 09:53:02;;;;;;;9.82;3.90;;;7.10;99.90;;;;;;5035556;28;20048;-55
2022/04/04 09:55:30;;;;;;;12.18;3.65;;;7.10;99.90;;;;;;5025352;28;20115;-57
2022/04/04 09:58:03;;;;;;;8.85;3.92;;;7.20;99.90;;;;;;5024629;28;20043;-57
2022/04/04 10:00:29;;;;;;;8.60;4.03;;;7.20;99.90;;;;;;5040187;28;20047;-58
2022/04/04 10:02:57;;;;;;;6.15;3.17;;;7.20;99.90;;;;;;5036433;28;20053;-55
2022/04/04 10:05:26;;;;;;;9.27;3.55;;;7.20;99.90;;;;;;5037888;28;20102;-57
2022/04/04 10:07:57;;;;;;;11.02;3.60;;;7.20;99.90;;;;;;5044381;28;20062;-56
2022/04/04 10:10:27;;;;;;;7.47;2.95;;;7.20;99.90;;;;;;5041256;28;20043;-56
2022/04/04 10:12:54;;;;;;;8.35;2.95;;;7.20;99.90;;;;;;5032040;28;20052;-58
2022/04/04 10:15:21;;;;;;;9.43;3.10;;;7.20;99.90;;;;;;5036776;28;20048;-55
2022/04/04 10:17:49;;;;;;;7.65;2.97;;;7.20;99.90;;;;;;5057893;28;20154;-57
2022/04/04 10:20:16;;;;;;;8.50;3.00;;;7.20;99.90;;;;;;5049805;28;20036;-54
2022/04/04 10:22:43;;;;;;;10.25;3.75;;;7.30;99.90;;;;;;5041688;28;20036;-55
2022/04/04 10:25:11;;;;;;;5.78;2.20;;;7.30;99.90;;;;;;5032330;28;20041;-56
2022/04/04 10:27:37;;;;;;;6.60;2.30;;;7.30;99.90;;;;;;5043709;28;20029;-55
2022/04/04 10:30:05;;;;;;;5.07;2.50;;;7.40;99.90;;;;;;5044409;28;20498;-57
2022/04/04 10:32:32;;;;;;;4.55;2.25;;;7.40;99.90;;;;;;5068389;28;20039;-57
2022/04/04 10:34:58;;;;;;;5.47;2.30;;;7.40;99.90;;;;;;5033961;28;20052;-56
2022/04/04 10:37:31;;;;;;;6.13;2.50;;;7.40;99.90;;;;;;5039028;28;20060;-57
2022/04/04 10:39:56;;;;;;;7.57;2.10;;;7.50;99.90;;;;;;5016125;28;20103;-53
2022/04/04 10:42:25;;;;;;;8.18;2.25;;;7.50;99.90;;;;;;5029235;28;20599;-57
2022/04/04 10:45:00;;;;;;;5.38;2.53;;;7.50;99.90;;;;;;5012817;28;20143;-55
2022/04/04 10:47:29;;;;;;;4.93;1.95;;;7.50;99.90;;;;;;5063484;28;20040;-53
2022/04/04 10:50:19;;;;;;;6.82;2.20;;;7.50;99.90;;;;;;5041405;28;20490;-53
2022/04/04 10:52:45;;;;;;;3.78;1.80;;;7.50;99.90;;;;;;5038326;28;20761;-55
2022/04/04 10:55:41;;;;;;;7.07;2.20;;;7.50;99.90;;;;;;5057700;28;20135;-58
2022/04/04 10:58:07;;;;;;;10.13;3.10;;;7.60;99.90;;;;;;5039493;28;20040;-56
2022/04/04 11:00:51;;;;;;;5.55;2.75;;;7.60;99.90;;;;;;5036573;28;20044;-56
2022/04/04 11:03:25;;;;;;;4.65;2.30;;;7.60;99.90;;;;;;5040483;28;20041;-56
2022/04/04 11:09:19;;;;;;;3.97;1.92;;;7.70;99.90;;;;;;5006441;28;20443;-57
2022/04/04 11:11:54;;;;;;;5.13;1.90;;;7.70;99.90;;;;;;5038953;28;20095;-59
2022/04/04 11:14:26;;;;;;;3.00;1.58;;;7.70;99.90;;;;;;5021229;28;20087;-55
2022/04/04 11:20:10;;;;;;;3.22;1.90;;;7.80;99.90;;;;;;5032061;28;20049;-56
2022/04/04 11:22:41;;;;;;;3.17;1.88;;;7.80;99.90;;;;;;5038845;28;20047;-56
2022/04/04 11:25:13;;;;;;;7.10;2.22;;;7.80;99.90;;;;;;5038849;28;20053;-59
2022/04/04 11:27:40;;;;;;;4.20;1.77;;;7.90;99.90;;;;;;5037710;28;20108;-54
2022/04/04 11:30:06;;;;;;;7.47;2.00;;;7.90;99.90;;;;;;5061875;28;20032;-59
2022/04/04 11:32:40;;;;;;;4.95;1.80;;;7.90;99.90;;;;;;5051205;28;20040;-58
2022/04/04 11:35:11;;;;;;;6.45;2.08;;;8.00;99.90;;;;;;5022799;28;20082;-54
2022/04/04 11:37:59;;;;;;;4.28;1.90;;;8.00;99.90;;;;;;5010909;28;20099;-57
2022/04/04 11:40:29;;;;;;;4.10;1.95;;;8.00;99.90;;;;;;5026618;28;20383;-59
2022/04/04 11:45:36;;;;;;;3.63;2.20;;;8.10;99.90;;;;;;5039595;28;20045;-63
2022/04/04 11:48:06;;;;;;;3.70;2.63;;;8.10;99.90;;;;;;5037451;28;20127;-61
2022/04/04 11:50:37;;;;;;;5.43;2.63;;;8.10;99.90;;;;;;5015369;28;20125;-62
2022/04/04 11:53:14;;;;;;;5.00;2.90;;;8.10;99.90;;;;;;5041802;28;20519;-63
2022/04/04 11:55:42;;;;;;;5.10;2.60;;;8.10;99.90;;;;;;5022713;28;20056;-61
2022/04/04 11:58:12;;;;;;;5.05;3.42;;;8.10;99.90;;;;;;5033385;28;20044;-62
2022/04/04 12:00:53;;;;;;;6.75;3.80;;;8.20;99.90;;;;;;5025481;28;20052;-63
2022/04/04 12:03:19;;;;;;;8.05;4.20;;;8.20;99.90;;;;;;5010243;28;20041;-60
2022/04/04 12:05:49;;;;;;;6.68;4.30;;;8.20;99.90;;;;;;5022760;28;20077;-63
2022/04/04 12:08:16;;;;;;;10.30;4.60;;;8.30;99.90;;;;;;5012608;28;20056;-63
2022/04/04 12:10:45;;;;;;;9.15;5.18;;;8.20;99.90;;;;;;5014086;28;20788;-62
2022/04/04 12:13:21;;;;;;;7.90;4.72;;;8.30;99.90;;;;;;5018774;28;20550;-63
2022/04/04 12:15:52;;;;;;;10.90;4.82;;;8.40;99.90;;;;;;5008722;28;20127;-60
2022/04/04 12:18:28;;;;;;;8.50;4.97;;;8.40;99.90;;;;;;5032777;28;20079;-63
2022/04/04 12:21:00;;;;;;;8.02;4.75;;;8.40;99.90;;;;;;5002773;28;20049;-63
2022/04/04 12:26:15;;;;;;;10.45;4.88;;;8.50;99.90;;;;;;5041021;28;20052;-63
2022/04/04 12:28:52;;;;;;;7.45;4.80;;;8.50;99.90;;;;;;5007278;28;20077;-62
2022/04/04 12:31:22;;;;;;;7.65;4.80;;;8.50;99.90;;;;;;5030413;28;20094;-62
2022/04/04 12:34:00;;;;;;;10.27;4.85;;;8.50;99.90;;;;;;5024614;28;20040;-64
2022/04/04 12:36:38;;;;;;;10.15;4.65;;;8.60;99.90;;;;;;4999868;28;20378;-62
2022/04/04 12:39:13;;;;;;;11.38;4.78;;;8.60;99.90;;;;;;5000907;28;20668;-61
2022/04/04 12:41:44;;;;;;;9.73;5.65;;;8.70;99.90;;;;;;5008213;28;20481;-62
2022/04/04 12:44:11;;;;;;;10.95;5.82;;;8.70;99.90;;;;;;5044378;28;20045;-62
2022/04/04 12:46:37;;;;;;;14.30;5.70;;;8.70;99.90;;;;;;5025751;28;20815;-62
2022/04/04 12:49:20;;;;;;;10.32;5.68;;;8.80;99.90;;;;;;5044100;28;20060;-61
2022/04/04 12:52:05;;;;;;;10.93;6.40;;;8.80;99.90;;;;;;5029010;28;20440;-61
2022/04/04 12:54:39;;;;;;;14.88;8.25;;;8.90;99.90;;;;;;5047541;28;20134;-62
2022/04/04 12:57:07;;;;;;;14.77;6.97;;;8.90;99.90;;;;;;5004824;28;20037;-61
2022/04/04 12:59:51;;;;;;;18.95;6.97;;;9.00;99.90;;;;;;5011205;28;20150;-62
2022/04/04 13:02:16;;;;;;;17.00;6.75;;;9.00;99.90;;;;;;5040563;28;20203;-63
2022/04/04 13:04:42;;;;;;;19.92;7.85;;;9.00;99.90;;;;;;5024802;28;20136;-62